Time;durP1;ratioP1;P1;durP2;ratioP2;P2;SDS_P1;SDS_P2;PMS_P1;PMS_P2;Temp;Humidity;BMP_temperature;BMP_pressure;BME280_temperature;BME280_humidity;BME280_pressure;Samples;Min_cycle;Max_cycle;Signal;HPM_P1;HPM_P2
2021/07/14 00:01:54;;;;;;;22.05;14.27;;;;;;;;;;5051240;28;20029;-86
2021/07/14 00:04:20;;;;;;;19.92;13.65;;;;;;;;;;5048949;28;20519;-86
2021/07/14 00:06:45;;;;;;;24.23;14.70;;;;;;;;;;5048862;28;20033;-86
2021/07/14 00:09:11;;;;;;;21.55;14.55;;;;;;;;;;5035387;28;20036;-86
2021/07/14 00:11:51;;;;;;;23.52;14.57;;;;;;;;;;5032720;28;20033;-85
2021/07/14 00:17:17;;;;;;;23.48;15.55;;;;;;;;;;5047700;28;20060;-85
2021/07/14 00:22:29;;;;;;;23.83;15.20;;;;;;;;;;5052698;28;20095;-86
2021/07/14 00:24:55;;;;;;;21.80;14.48;;;;;;;;;;5048800;28;20028;-86
2021/07/14 00:27:23;;;;;;;24.02;16.05;;;;;;;;;;5044785;28;20054;-85
2021/07/14 00:29:51;;;;;;;28.50;16.40;;;;;;;;;;5048965;28;20028;-86
2021/07/14 00:32:17;;;;;;;26.42;16.73;;;;;;;;;;5060825;28;20040;-86
2021/07/14 00:34:42;;;;;;;26.58;16.98;;;;;;;;;;5047835;28;20033;-85
2021/07/14 00:37:08;;;;;;;24.80;16.25;;;;;;;;;;5032811;28;20029;-85
2021/07/14 00:39:33;;;;;;;24.25;15.45;;;;;;;;;;5037214;28;20028;-85
2021/07/14 00:41:59;;;;;;;28.00;16.02;;;;;;;;;;5033466;28;20116;-86
2021/07/14 00:44:24;;;;;;;26.67;17.10;;;;;;;;;;5034331;28;20415;-86
2021/07/14 00:46:52;;;;;;;26.10;16.27;;;;;;;;;;5052823;28;20488;-86
2021/07/14 00:49:18;;;;;;;23.20;16.55;;;;;;;;;;5034695;28;20025;-86
2021/07/14 00:51:46;;;;;;;24.00;15.90;;;;;;;;;;5043823;28;20473;-86
2021/07/14 00:54:11;;;;;;;25.08;15.77;;;;;;;;;;5043036;28;20082;-86
2021/07/14 00:56:38;;;;;;;26.40;15.05;;;;;;;;;;5028566;28;20119;-86
2021/07/14 00:59:03;;;;;;;25.50;16.63;;;;;;;;;;5035631;28;20021;-86
2021/07/14 01:01:31;;;;;;;26.30;16.65;;;;;;;;;;5060200;28;20029;-85
2021/07/14 01:04:11;;;;;;;22.52;15.13;;;;;;;;;;5037262;28;20029;-85
2021/07/14 01:06:46;;;;;;;21.85;14.35;;;;;;;;;;5049211;28;20536;-86
2021/07/14 01:09:13;;;;;;;24.15;15.13;;;;;;;;;;5052618;28;20024;-86
2021/07/14 01:11:41;;;;;;;22.98;15.32;;;;;;;;;;5018594;28;20033;-86
2021/07/14 01:14:35;;;;;;;25.27;15.38;;;;;;;;;;5041198;28;20056;-86
2021/07/14 01:17:05;;;;;;;25.58;15.27;;;;;;;;;;5066602;28;20032;-85
2021/07/14 01:19:52;;;;;;;22.30;14.52;;;;;;;;;;5057025;28;20032;-85
2021/07/14 01:22:59;;;;;;;23.65;15.00;;;;;;;;;;5059607;28;20028;-86
2021/07/14 01:25:46;;;;;;;22.00;14.52;;;;;;;;;;5055231;28;20035;-86
2021/07/14 01:28:13;;;;;;;26.60;14.95;;;;;;;;;;5058002;28;20028;-85
2021/07/14 01:30:40;;;;;;;22.15;14.88;;;;;;;;;;5016773;28;20029;-86
2021/07/14 01:33:08;;;;;;;21.77;15.07;;;;;;;;;;5016323;28;20061;-85
2021/07/14 01:35:37;;;;;;;22.08;14.40;;;;;;;;;;5056880;28;20029;-86
2021/07/14 01:38:03;;;;;;;24.90;13.80;;;;;;;;;;5052877;28;20163;-86
2021/07/14 01:40:31;;;;;;;24.02;15.75;;;;;;;;;;5020179;28;20064;-86
2021/07/14 01:43:00;;;;;;;22.25;14.65;;;;;;;;;;5017969;28;20090;-86
2021/07/14 01:45:32;;;;;;;23.08;15.63;;;;;;;;;;5057939;28;20117;-86
2021/07/14 01:48:00;;;;;;;23.45;15.15;;;;;;;;;;5051472;28;20025;-86
2021/07/14 01:50:28;;;;;;;23.98;15.02;;;;;;;;;;5059622;28;20037;-86
2021/07/14 01:52:54;;;;;;;19.77;14.15;;;;;;;;;;5075206;28;20383;-85
2021/07/14 01:55:21;;;;;;;18.42;12.43;;;;;;;;;;5025359;28;20029;-85
2021/07/14 01:57:47;;;;;;;23.65;13.93;;;;;;;;;;5042248;28;20033;-85
2021/07/14 02:00:13;;;;;;;22.08;14.45;;;;;;;;;;5053490;28;20031;-85
2021/07/14 02:02:51;;;;;;;21.60;13.65;;;;;;;;;;5057885;28;20028;-86
2021/07/14 02:05:17;;;;;;;19.90;12.88;;;;;;;;;;5076274;28;20021;-86
2021/07/14 02:07:43;;;;;;;21.52;13.63;;;;;;;;;;5040945;28;20032;-86
2021/07/14 02:10:09;;;;;;;21.80;13.40;;;;;;;;;;5069161;28;20037;-86
2021/07/14 02:12:39;;;;;;;19.52;13.38;;;;;;;;;;5075402;28;20040;-86
2021/07/14 02:15:08;;;;;;;19.88;13.10;;;;;;;;;;5053805;28;20055;-86
2021/07/14 02:17:47;;;;;;;23.98;13.90;;;;;;;;;;5038405;28;20063;-85
2021/07/14 02:20:16;;;;;;;19.77;13.35;;;;;;;;;;5064237;28;20422;-85
2021/07/14 02:22:42;;;;;;;21.00;13.48;;;;;;;;;;5057469;28;20082;-86
2021/07/14 02:25:08;;;;;;;25.08;14.73;;;;;;;;;;5062464;28;20028;-86
2021/07/14 02:27:34;;;;;;;22.40;14.43;;;;;;;;;;5055521;28;20033;-86
2021/07/14 02:29:59;;;;;;;25.02;15.18;;;;;;;;;;5041237;28;20047;-86
2021/07/14 02:32:25;;;;;;;25.83;14.38;;;;;;;;;;5024923;28;20033;-86
2021/07/14 02:34:53;;;;;;;24.23;15.05;;;;;;;;;;5064665;28;20071;-86
2021/07/14 02:37:45;;;;;;;25.67;15.40;;;;;;;;;;5060366;28;20025;-86
2021/07/14 02:40:12;;;;;;;27.45;15.63;;;;;;;;;;5057944;28;20423;-86
2021/07/14 02:42:40;;;;;;;22.95;14.55;;;;;;;;;;5024336;28;20119;-86
2021/07/14 02:45:06;;;;;;;23.52;13.85;;;;;;;;;;5039149;28;20106;-86
2021/07/14 02:47:38;;;;;;;24.23;15.30;;;;;;;;;;5060557;28;20025;-86
2021/07/14 02:50:06;;;;;;;21.23;13.63;;;;;;;;;;5056774;28;20153;-86
2021/07/14 02:52:35;;;;;;;27.10;16.15;;;;;;;;;;5065177;28;20029;-86
2021/07/14 02:55:03;;;;;;;23.65;15.75;;;;;;;;;;5070056;28;20063;-86
2021/07/14 02:57:30;;;;;;;28.27;16.13;;;;;;;;;;5054320;28;20114;-86
2021/07/14 02:59:56;;;;;;;24.42;16.27;;;;;;;;;;5067054;28;20456;-86
2021/07/14 03:02:23;;;;;;;26.33;16.25;;;;;;;;;;5039027;28;20060;-86
2021/07/14 03:04:51;;;;;;;27.42;15.88;;;;;;;;;;5039249;28;20020;-86
2021/07/14 03:07:21;;;;;;;27.27;16.45;;;;;;;;;;5040831;28;20032;-86
2021/07/14 03:09:47;;;;;;;22.05;14.55;;;;;;;;;;5070421;28;20024;-86
2021/07/14 03:12:17;;;;;;;24.92;15.43;;;;;;;;;;5055344;28;20028;-86
2021/07/14 03:14:58;;;;;;;25.05;15.45;;;;;;;;;;5074094;28;20025;-86
2021/07/14 03:17:28;;;;;;;22.88;14.65;;;;;;;;;;5056632;28;20028;-86
2021/07/14 03:19:55;;;;;;;24.20;15.32;;;;;;;;;;5074381;28;20035;-86
2021/07/14 03:22:21;;;;;;;24.27;15.27;;;;;;;;;;5055034;28;20111;-86
2021/07/14 03:24:47;;;;;;;19.40;12.68;;;;;;;;;;5039567;28;20052;-86
2021/07/14 03:27:14;;;;;;;22.73;13.77;;;;;;;;;;5040346;28;20064;-86
2021/07/14 03:29:40;;;;;;;22.67;13.93;;;;;;;;;;5034190;28;20033;-86
2021/07/14 03:32:06;;;;;;;22.50;13.20;;;;;;;;;;5056235;28;20032;-86
2021/07/14 03:34:32;;;;;;;22.75;13.60;;;;;;;;;;5055322;28;20032;-86
2021/07/14 03:37:04;;;;;;;22.90;14.43;;;;;;;;;;5047315;28;20059;-86
2021/07/14 03:39:31;;;;;;;22.73;14.10;;;;;;;;;;5056511;28;20533;-86
2021/07/14 03:41:58;;;;;;;22.45;14.20;;;;;;;;;;5034985;28;20029;-86
2021/07/14 03:44:24;;;;;;;23.95;14.48;;;;;;;;;;5015070;28;1097994;-86
2021/07/14 03:46:52;;;;;;;18.88;13.07;;;;;;;;;;5040094;28;20037;-86
2021/07/14 03:49:18;;;;;;;19.67;13.68;;;;;;;;;;5042850;28;20537;-86
2021/07/14 03:51:46;;;;;;;18.08;12.02;;;;;;;;;;5038926;28;20108;-86
2021/07/14 03:54:13;;;;;;;21.25;13.23;;;;;;;;;;5041448;28;20021;-86
2021/07/14 03:56:39;;;;;;;20.13;12.90;;;;;;;;;;5037737;28;20056;-86
2021/07/14 03:59:05;;;;;;;20.45;12.45;;;;;;;;;;5041702;28;20027;-86
2021/07/14 04:01:31;;;;;;;21.45;14.48;;;;;;;;;;5007407;28;20033;-85
2021/07/14 04:03:57;;;;;;;19.45;12.73;;;;;;;;;;5021105;28;20051;-86
2021/07/14 04:06:26;;;;;;;18.90;12.57;;;;;;;;;;5047095;28;20028;-86
2021/07/14 04:09:10;;;;;;;17.52;12.07;;;;;;;;;;5047637;28;20086;-86
2021/07/14 04:11:35;;;;;;;16.60;12.20;;;;;;;;;;5036053;28;20032;-86
2021/07/14 04:14:01;;;;;;;16.33;11.02;;;;;;;;;;5021384;28;20129;-86
2021/07/14 04:16:27;;;;;;;20.60;12.60;;;;;;;;;;5023576;28;20060;-86
2021/07/14 04:18:53;;;;;;;16.33;10.93;;;;;;;;;;5025205;28;20455;-86
2021/07/14 04:21:18;;;;;;;17.52;11.93;;;;;;;;;;5035389;28;20111;-86
2021/07/14 04:23:43;;;;;;;17.95;11.80;;;;;;;;;;5028379;28;20469;-85
2021/07/14 04:26:09;;;;;;;15.45;10.98;;;;;;;;;;5026796;28;20033;-86
2021/07/14 04:28:34;;;;;;;16.10;11.88;;;;;;;;;;5035995;28;20136;-86
2021/07/14 04:31:00;;;;;;;14.63;11.25;;;;;;;;;;5022972;28;20033;-86
2021/07/14 04:33:25;;;;;;;14.13;10.77;;;;;;;;;;5025072;28;20033;-86
2021/07/14 04:35:51;;;;;;;17.23;11.05;;;;;;;;;;5029662;28;20024;-86
2021/07/14 04:38:16;;;;;;;16.75;11.73;;;;;;;;;;5053659;28;20516;-86
2021/07/14 04:40:42;;;;;;;14.82;11.13;;;;;;;;;;5055426;28;20426;-86
2021/07/14 04:43:10;;;;;;;13.43;11.30;;;;;;;;;;5027718;28;20029;-86
2021/07/14 04:45:36;;;;;;;15.07;10.70;;;;;;;;;;5021153;28;20069;-86
2021/07/14 04:48:02;;;;;;;15.85;10.95;;;;;;;;;;5032625;28;20039;-86
2021/07/14 04:50:28;;;;;;;14.13;9.70;;;;;;;;;;5018869;28;20106;-86
2021/07/14 04:52:54;;;;;;;13.20;9.73;;;;;;;;;;5027432;28;20383;-86
2021/07/14 04:55:19;;;;;;;17.48;11.55;;;;;;;;;;5019661;28;20021;-86
2021/07/14 04:57:45;;;;;;;14.30;10.65;;;;;;;;;;5027069;28;20124;-86
2021/07/14 05:00:11;;;;;;;13.68;10.45;;;;;;;;;;5030309;28;20117;-86
2021/07/14 05:02:37;;;;;;;16.13;11.23;;;;;;;;;;5021570;28;20119;-86
2021/07/14 05:05:04;;;;;;;13.43;10.35;;;;;;;;;;5050017;28;20445;-86
2021/07/14 05:07:30;;;;;;;12.32;9.75;;;;;;;;;;5032584;28;20116;-86
2021/07/14 05:09:57;;;;;;;13.25;9.73;;;;;;;;;;5032715;28;20021;-86
2021/07/14 05:12:22;;;;;;;14.25;10.55;;;;;;;;;;5001029;28;20041;-86
2021/07/14 05:14:47;;;;;;;12.35;9.77;;;;;;;;;;5014851;28;20035;-86
2021/07/14 05:17:13;;;;;;;14.88;10.13;;;;;;;;;;5049082;28;20026;-86
2021/07/14 05:19:38;;;;;;;13.80;10.25;;;;;;;;;;5018991;28;20039;-86
2021/07/14 05:22:04;;;;;;;15.15;11.40;;;;;;;;;;5017158;28;20476;-86
2021/07/14 05:24:30;;;;;;;15.55;10.80;;;;;;;;;;5018984;28;20063;-86
2021/07/14 05:26:55;;;;;;;14.48;10.63;;;;;;;;;;5004697;28;20064;-86
2021/07/14 05:29:21;;;;;;;16.60;10.40;;;;;;;;;;5018849;28;20033;-86
2021/07/14 05:31:46;;;;;;;14.23;10.63;;;;;;;;;;5004038;28;20033;-86
2021/07/14 05:34:12;;;;;;;14.65;10.65;;;;;;;;;;5031868;28;20032;-86
2021/07/14 05:36:38;;;;;;;13.73;9.77;;;;;;;;;;5018911;28;20068;-86
2021/07/14 05:39:04;;;;;;;13.70;10.00;;;;;;;;;;5033037;28;20029;-86
2021/07/14 05:41:30;;;;;;;14.98;9.90;;;;;;;;;;5015538;28;20033;-86
2021/07/14 05:43:55;;;;;;;13.65;10.02;;;;;;;;;;5034238;28;20051;-86
2021/07/14 05:46:22;;;;;;;14.95;10.75;;;;;;;;;;5053181;28;20117;-86
2021/07/14 05:48:49;;;;;;;12.57;9.82;;;;;;;;;;5041801;28;20020;-86
2021/07/14 05:51:14;;;;;;;12.88;9.75;;;;;;;;;;5067235;28;20024;-86
2021/07/14 05:53:40;;;;;;;14.20;10.20;;;;;;;;;;5053165;28;20086;-86
2021/07/14 05:56:05;;;;;;;16.17;10.30;;;;;;;;;;5018697;28;20033;-86
2021/07/14 05:58:31;;;;;;;15.52;11.25;;;;;;;;;;5053672;28;20468;-86
2021/07/14 06:00:56;;;;;;;15.07;10.75;;;;;;;;;;5044372;28;20037;-86
2021/07/14 06:03:22;;;;;;;13.43;10.23;;;;;;;;;;5034405;28;20035;-86
2021/07/14 06:05:48;;;;;;;12.93;9.80;;;;;;;;;;5024281;28;20021;-86
2021/07/14 06:08:13;;;;;;;16.13;10.70;;;;;;;;;;5043257;28;20048;-86
2021/07/14 06:10:39;;;;;;;16.17;11.63;;;;;;;;;;5021436;28;20048;-86
2021/07/14 06:13:04;;;;;;;16.13;11.48;;;;;;;;;;5021758;28;20039;-86
2021/07/14 06:15:30;;;;;;;15.98;11.27;;;;;;;;;;5044234;28;20539;-86
2021/07/14 06:17:55;;;;;;;15.73;11.20;;;;;;;;;;5038192;28;20032;-86
2021/07/14 06:20:22;;;;;;;14.63;10.32;;;;;;;;;;5064036;28;20036;-86
2021/07/14 06:22:47;;;;;;;17.00;11.30;;;;;;;;;;5053139;28;20082;-86
2021/07/14 06:25:13;;;;;;;15.15;10.63;;;;;;;;;;5039321;28;20032;-86
2021/07/14 06:27:40;;;;;;;15.77;11.45;;;;;;;;;;5066203;28;20052;-86
2021/07/14 06:30:09;;;;;;;15.77;11.85;;;;;;;;;;5058944;28;20040;-86
2021/07/14 06:32:35;;;;;;;18.10;12.60;;;;;;;;;;5056138;28;20056;-86
2021/07/14 06:35:00;;;;;;;17.15;12.18;;;;;;;;;;5059540;28;20533;-86
2021/07/14 06:37:26;;;;;;;17.40;12.63;;;;;;;;;;5038190;28;20036;-87
2021/07/14 06:39:52;;;;;;;17.58;12.75;;;;;;;;;;5041126;28;20131;-86
2021/07/14 06:42:17;;;;;;;16.42;12.32;;;;;;;;;;5053507;28;20020;-86
2021/07/14 06:44:42;;;;;;;16.10;12.30;;;;;;;;;;5019012;28;20072;-86
2021/07/14 06:47:08;;;;;;;17.52;12.95;;;;;;;;;;5021622;28;20025;-86
2021/07/14 06:49:34;;;;;;;17.77;12.80;;;;;;;;;;5049156;28;20029;-86
2021/07/14 06:52:00;;;;;;;19.45;12.68;;;;;;;;;;5020446;28;20376;-86
2021/07/14 06:54:26;;;;;;;16.55;11.88;;;;;;;;;;5032658;28;20102;-86
2021/07/14 06:56:51;;;;;;;18.75;12.40;;;;;;;;;;5054310;28;20083;-86
2021/07/14 06:59:17;;;;;;;19.95;13.88;;;;;;;;;;5037655;28;20434;-86
2021/07/14 07:01:42;;;;;;;20.33;13.82;;;;;;;;;;5037930;28;20029;-86
2021/07/14 07:04:07;;;;;;;17.65;12.55;;;;;;;;;;5037178;28;20060;-86
2021/07/14 07:06:33;;;;;;;21.38;13.13;;;;;;;;;;5025001;28;20032;-86
2021/07/14 07:08:59;;;;;;;16.42;12.90;;;;;;;;;;5036989;28;20025;-86
2021/07/14 07:11:25;;;;;;;15.98;11.55;;;;;;;;;;5037845;28;20072;-86
2021/07/14 07:13:50;;;;;;;18.23;12.35;;;;;;;;;;5043883;28;20033;-86
2021/07/14 07:16:16;;;;;;;16.50;12.02;;;;;;;;;;5039772;28;20502;-86
2021/07/14 07:18:41;;;;;;;17.42;12.10;;;;;;;;;;5054819;28;20036;-86
2021/07/14 07:21:08;;;;;;;17.10;12.23;;;;;;;;;;5037696;28;20476;-86
2021/07/14 07:23:36;;;;;;;14.25;10.98;;;;;;;;;;5054450;28;20507;-86
2021/07/14 07:26:02;;;;;;;18.15;13.05;;;;;;;;;;5054420;28;20106;-85
2021/07/14 07:28:33;;;;;;;18.05;12.82;;;;;;;;;;5037630;28;20036;-85
2021/07/14 07:30:59;;;;;;;16.60;13.02;;;;;;;;;;5055093;28;20660;-85
2021/07/14 07:33:24;;;;;;;17.92;12.60;;;;;;;;;;5010460;28;20025;-85
2021/07/14 07:35:50;;;;;;;16.27;12.25;;;;;;;;;;5055250;28;20031;-85
2021/07/14 07:38:15;;;;;;;19.58;13.32;;;;;;;;;;5037938;28;20021;-85
2021/07/14 07:40:41;;;;;;;17.10;12.10;;;;;;;;;;5053924;28;20035;-85
2021/07/14 07:43:06;;;;;;;18.23;12.68;;;;;;;;;;5053998;28;21563;-85
2021/07/14 07:45:32;;;;;;;16.58;12.25;;;;;;;;;;5014172;28;20129;-85
2021/07/14 07:47:57;;;;;;;18.80;12.88;;;;;;;;;;5008118;28;20033;-85
2021/07/14 07:50:23;;;;;;;20.15;13.90;;;;;;;;;;5058463;28;20036;-85
2021/07/14 07:52:48;;;;;;;19.98;13.23;;;;;;;;;;5039382;28;20060;-85
2021/07/14 07:55:17;;;;;;;22.58;15.85;;;;;;;;;;5039206;28;20546;-84
2021/07/14 07:57:43;;;;;;;20.58;14.35;;;;;;;;;;5018427;28;20033;-85
2021/07/14 08:00:13;;;;;;;25.67;15.77;;;;;;;;;;5051815;28;20064;-85
2021/07/14 08:02:39;;;;;;;26.67;17.15;;;;;;;;;;5037984;28;20029;-85
2021/07/14 08:05:05;;;;;;;24.38;15.85;;;;;;;;;;5037326;28;20028;-85
2021/07/14 08:07:31;;;;;;;23.27;16.25;;;;;;;;;;5057696;28;20067;-85
2021/07/14 08:09:56;;;;;;;25.98;16.10;;;;;;;;;;5019986;28;20068;-85
2021/07/14 08:12:22;;;;;;;25.50;17.23;;;;;;;;;;5039366;28;20041;-85
2021/07/14 08:14:47;;;;;;;26.70;17.98;;;;;;;;;;5054148;28;20040;-85
2021/07/14 08:17:13;;;;;;;29.67;17.00;;;;;;;;;;5035312;28;20388;-85
2021/07/14 08:19:38;;;;;;;26.05;17.35;;;;;;;;;;4997307;28;20034;-84
2021/07/14 08:22:04;;;;;;;28.40;17.60;;;;;;;;;;5017642;28;20025;-85
2021/07/14 08:24:29;;;;;;;24.27;16.08;;;;;;;;;;5028052;28;20179;-85
2021/07/14 08:26:55;;;;;;;25.48;17.30;;;;;;;;;;5023050;28;20037;-85
2021/07/14 08:29:20;;;;;;;25.85;16.80;;;;;;;;;;5030860;28;20064;-85
2021/07/14 08:31:51;;;;;;;26.05;17.45;;;;;;;;;;5035331;28;20115;-85
2021/07/14 08:34:17;;;;;;;26.67;16.80;;;;;;;;;;5035067;28;20488;-85
2021/07/14 08:36:43;;;;;;;27.20;17.05;;;;;;;;;;5051853;28;20021;-85
2021/07/14 08:39:08;;;;;;;25.60;16.27;;;;;;;;;;5042219;28;20039;-84
2021/07/14 08:41:36;;;;;;;25.02;16.20;;;;;;;;;;5022816;28;20127;-85
2021/07/14 08:44:02;;;;;;;27.02;16.90;;;;;;;;;;5034050;28;20085;-85
2021/07/14 08:46:28;;;;;;;25.80;16.33;;;;;;;;;;5055543;28;20060;-85
2021/07/14 08:48:54;;;;;;;25.05;15.82;;;;;;;;;;5063988;28;20412;-85
2021/07/14 08:51:19;;;;;;;25.45;16.40;;;;;;;;;;5040055;28;20055;-85
2021/07/14 08:53:47;;;;;;;22.50;16.10;;;;;;;;;;5019022;28;20028;-85
2021/07/14 08:56:13;;;;;;;24.65;16.00;;;;;;;;;;5065914;28;20111;-85
2021/07/14 08:58:38;;;;;;;23.50;15.60;;;;;;;;;;5035616;28;20123;-85
2021/07/14 09:01:04;;;;;;;23.95;15.32;;;;;;;;;;5054494;28;20032;-85
2021/07/14 09:03:29;;;;;;;24.35;16.65;;;;;;;;;;5051564;28;20990;-86
2021/07/14 09:05:55;;;;;;;24.80;16.05;;;;;;;;;;5052761;28;20034;-85
2021/07/14 09:08:21;;;;;;;26.52;16.58;;;;;;;;;;5053304;28;20074;-85
2021/07/14 09:10:47;;;;;;;27.85;18.13;;;;;;;;;;5052892;28;20037;-85
2021/07/14 09:13:13;;;;;;;24.33;16.70;;;;;;;;;;5060692;28;20033;-85
2021/07/14 09:15:51;;;;;;;23.83;15.73;;;;;;;;;;5047686;28;20160;-85
2021/07/14 09:18:20;;;;;;;23.75;15.38;;;;;;;;;;5077334;28;20028;-85
2021/07/14 09:20:46;;;;;;;21.80;14.65;;;;;;;;;;5037422;28;20502;-85
2021/07/14 09:23:16;;;;;;;22.65;15.20;;;;;;;;;;5054165;28;20181;-85
2021/07/14 09:25:41;;;;;;;22.70;15.95;;;;;;;;;;5045425;28;20060;-86
2021/07/14 09:28:07;;;;;;;20.10;14.40;;;;;;;;;;5049338;28;20060;-85
2021/07/14 09:30:34;;;;;;;21.45;15.23;;;;;;;;;;5030420;28;20040;-85
2021/07/14 09:33:05;;;;;;;21.10;14.50;;;;;;;;;;5044126;28;20032;-85
2021/07/14 09:35:47;;;;;;;22.63;15.27;;;;;;;;;;5032923;28;20075;-85
2021/07/14 09:38:33;;;;;;;19.83;14.10;;;;;;;;;;5049353;28;20115;-85
2021/07/14 09:41:07;;;;;;;19.38;14.57;;;;;;;;;;5067292;28;20031;-86
2021/07/14 09:43:36;;;;;;;24.10;14.77;;;;;;;;;;5050992;28;20033;-86
2021/07/14 09:46:09;;;;;;;19.42;14.65;;;;;;;;;;5031539;28;20111;-86
2021/07/14 09:48:38;;;;;;;;;;;;;;;;;;5035241;28;20025;-86
2021/07/14 09:51:23;;;;;;;19.23;14.38;;;;;;;;;;5031579;28;19963;-86
2021/07/14 09:53:54;;;;;;;18.15;13.38;;;;;;;;;;5017737;28;20037;-85
2021/07/14 09:56:21;;;;;;;18.60;13.90;;;;;;;;;;5044916;28;20583;-86
2021/07/14 09:58:47;;;;;;;21.52;14.73;;;;;;;;;;5029319;28;20033;-86
2021/07/14 10:01:16;;;;;;;21.08;14.65;;;;;;;;;;5013213;28;20905;-86
2021/07/14 10:03:50;;;;;;;18.02;13.40;;;;;;;;;;5024406;28;20043;-86
2021/07/14 10:06:37;;;;;;;20.70;14.50;;;;;;;;;;5033447;28;20083;-87
2021/07/14 10:09:03;;;;;;;20.00;14.38;;;;;;;;;;5022912;28;20033;-86
2021/07/14 10:11:29;;;;;;;20.58;14.07;;;;;;;;;;5011229;28;20578;-85
2021/07/14 10:13:58;;;;;;;19.40;13.90;;;;;;;;;;5040881;28;20037;-86
2021/07/14 10:16:32;;;;;;;18.77;12.80;;;;;;;;;;5033316;28;20072;-86
2021/07/14 10:18:59;;;;;;;21.35;14.70;;;;;;;;;;5049038;28;20532;-85
2021/07/14 10:21:25;;;;;;;19.35;12.93;;;;;;;;;;5038725;28;20086;-85
2021/07/14 10:23:52;;;;;;;17.15;12.85;;;;;;;;;;5033860;28;20024;-85
2021/07/14 10:26:18;;;;;;;19.15;13.02;;;;;;;;;;4995770;28;20175;-85
2021/07/14 10:28:45;;;;;;;19.77;13.07;;;;;;;;;;5029824;28;20033;-85
2021/07/14 10:31:11;;;;;;;22.60;14.15;;;;;;;;;;5056099;28;20028;-85
2021/07/14 10:33:38;;;;;;;18.45;12.82;;;;;;;;;;5021805;28;20037;-85
2021/07/14 10:36:07;;;;;;;20.80;13.73;;;;;;;;;;5056298;28;20033;-85
2021/07/14 10:38:33;;;;;;;19.02;12.82;;;;;;;;;;5056182;28;20029;-86
2021/07/14 10:40:59;;;;;;;21.15;13.23;;;;;;;;;;5016438;28;20108;-85
2021/07/14 10:43:26;;;;;;;18.98;13.48;;;;;;;;;;5036082;28;20124;-86
2021/07/14 10:45:52;;;;;;;23.13;13.77;;;;;;;;;;5052528;28;20045;-86
2021/07/14 10:48:20;;;;;;;22.13;13.85;;;;;;;;;;5040227;28;20043;-86
2021/07/14 10:50:47;;;;;;;23.08;13.63;;;;;;;;;;5027037;28;20033;-85
2021/07/14 10:53:14;;;;;;;19.05;13.25;;;;;;;;;;5039009;28;20034;-85
2021/07/14 10:55:44;;;;;;;18.98;12.63;;;;;;;;;;5057198;28;20041;-85
2021/07/14 10:58:16;;;;;;;19.05;13.23;;;;;;;;;;5063605;28;20498;-86
2021/07/14 11:00:44;;;;;;;18.97;12.93;;;;;;;;;;5047787;28;20028;-85
2021/07/14 11:03:44;;;;;;;20.52;12.68;;;;;;;;;;5053786;28;20454;-86
2021/07/14 11:06:15;;;;;;;20.25;12.95;;;;;;;;;;5042399;28;20043;-86
2021/07/14 11:08:50;;;;;;;17.30;11.85;;;;;;;;;;5050637;28;20567;-85
2021/07/14 11:11:18;;;;;;;16.55;11.63;;;;;;;;;;5048834;28;20036;-85
2021/07/14 11:13:46;;;;;;;17.63;11.07;;;;;;;;;;5051843;28;20047;-86
2021/07/14 11:16:29;;;;;;;17.27;11.98;;;;;;;;;;5062024;28;20028;-86
2021/07/14 11:19:07;;;;;;;17.27;11.90;;;;;;;;;;5047592;28;20028;-85
2021/07/14 11:21:50;;;;;;;16.63;11.50;;;;;;;;;;5068550;28;20028;-86
2021/07/14 11:24:46;;;;;;;15.93;11.50;;;;;;;;;;5040179;28;20405;-86
2021/07/14 11:27:27;;;;;;;19.42;12.45;;;;;;;;;;5047496;28;20074;-86
2021/07/14 11:30:15;;;;;;;17.80;11.88;;;;;;;;;;5066025;28;20028;-87
2021/07/14 11:32:43;;;;;;;17.48;11.82;;;;;;;;;;5042404;28;20028;-86
2021/07/14 11:35:16;;;;;;;17.13;11.32;;;;;;;;;;5067581;28;20029;-87
2021/07/14 11:37:55;;;;;;;17.17;11.48;;;;;;;;;;5046159;28;20387;-86
2021/07/14 11:40:36;;;;;;;16.48;11.90;;;;;;;;;;5052912;28;20115;-86
2021/07/14 11:44:01;;;;;;;16.17;11.20;;;;;;;;;;5073739;28;20028;-86
2021/07/14 12:31:48;;;;;;;19.45;12.63;;;;;;;;;;4960443;28;20136;-86
2021/07/14 12:34:39;;;;;;;18.27;11.95;;;;;;;;;;4976747;28;20061;-85
2021/07/14 12:37:10;;;;;;;15.57;10.73;;;;;;;;;;5046075;28;20033;-86
2021/07/14 12:40:14;;;;;;;15.85;11.82;;;;;;;;;;5043521;28;20048;-85
2021/07/14 12:43:17;;;;;;;21.60;12.95;;;;;;;;;;5013038;28;20040;-85
2021/07/14 12:46:50;;;;;;;18.60;12.55;;;;;;;;;;5040152;28;20076;-85
2021/07/14 12:52:52;;;;;;;15.80;11.45;;;;;;;;;;4974662;28;20572;-85
2021/07/14 12:59:33;;;;;;;;;;;;;;;;;;;;;
2021/07/14 13:06:12;;;;;;;15.90;11.57;;;;;;;;;;4970518;28;19949;-86
2021/07/14 13:09:12;;;;;;;15.85;10.77;;;;;;;;;;4926551;28;20042;-85
2021/07/14 13:16:14;;;;;;;17.02;12.30;;;;;;;;;;4972080;28;20061;-86
2021/07/14 13:19:28;;;;;;;;;;;;;;;;;;;;;
2021/07/14 14:26:10;;;;;;;14.68;11.98;;;;;;;;;;2828733;24;20337;-85
2021/07/14 19:40:29;;;;;;;20.45;12.95;;;;;;;;;;495504;28;20340;-84
2021/07/14 19:42:55;;;;;;;17.08;11.95;;;;;;;;;;4668694;30;20070;-83
2021/07/14 19:45:26;;;;;;;16.05;12.25;;;;;;;;;;4635260;30;20050;-84
2021/07/14 19:47:52;;;;;;;17.67;12.82;;;;;;;;;;4650364;30;20050;-84
2021/07/14 19:50:18;;;;;;;17.05;12.27;;;;;;;;;;4649507;30;20504;-83
2021/07/14 19:52:44;;;;;;;15.95;11.38;;;;;;;;;;4666754;30;20077;-84
2021/07/14 19:55:42;;;;;;;16.92;12.18;;;;;;;;;;4679506;30;20042;-85
2021/07/14 19:58:49;;;;;;;;;;;;;;;;;;;;;
2021/07/14 21:03:00;;;;;;;16.90;10.90;;;;;;;;;;497758;28;20399;-84
2021/07/14 21:05:26;;;;;;;16.77;11.48;;;;;;;;;;4679648;30;20737;-84
2021/07/14 21:07:52;;;;;;;17.83;11.07;;;;;;;;;;4678972;30;20037;-84
2021/07/14 21:10:18;;;;;;;12.68;9.82;;;;;;;;;;4668433;30;20084;-84
2021/07/14 21:12:44;;;;;;;17.65;11.18;;;;;;;;;;4679621;30;20037;-85
2021/07/14 21:15:12;;;;;;;12.88;9.90;;;;;;;;;;4679453;30;20102;-84
2021/07/14 21:17:38;;;;;;;14.60;10.63;;;;;;;;;;4679940;30;20034;-85
2021/07/14 21:20:06;;;;;;;10.73;9.13;;;;;;;;;;4681646;30;20036;-83
2021/07/14 21:22:32;;;;;;;13.55;9.32;;;;;;;;;;4699009;30;20041;-84
2021/07/14 21:24:58;;;;;;;13.25;9.98;;;;;;;;;;4662435;30;20041;-83
2021/07/14 21:27:23;;;;;;;16.55;11.45;;;;;;;;;;4696469;30;20052;-83
2021/07/14 21:29:49;;;;;;;15.63;10.30;;;;;;;;;;4680024;30;20491;-83
2021/07/14 21:32:15;;;;;;;18.30;10.77;;;;;;;;;;4682530;30;20037;-82
2021/07/14 21:34:41;;;;;;;17.88;12.07;;;;;;;;;;4683570;30;20033;-83
2021/07/14 21:37:07;;;;;;;13.57;9.68;;;;;;;;;;4663404;30;20129;-83
2021/07/14 21:39:33;;;;;;;17.33;10.55;;;;;;;;;;4672119;30;20060;-83
2021/07/14 21:41:59;;;;;;;14.75;10.88;;;;;;;;;;4686926;30;20046;-83
2021/07/14 21:44:25;;;;;;;12.95;9.20;;;;;;;;;;4682802;30;20042;-83
2021/07/14 21:46:50;;;;;;;14.32;11.15;;;;;;;;;;4663801;30;20025;-83
2021/07/14 21:49:16;;;;;;;12.15;9.07;;;;;;;;;;4666446;30;20140;-83
2021/07/14 21:51:41;;;;;;;13.50;10.00;;;;;;;;;;4665136;30;20120;-82
2021/07/14 21:54:07;;;;;;;12.75;9.90;;;;;;;;;;4650798;30;20462;-83
2021/07/14 21:56:32;;;;;;;15.30;11.25;;;;;;;;;;4654570;30;20050;-83
2021/07/14 21:58:57;;;;;;;14.35;11.77;;;;;;;;;;4652011;30;20132;-83
2021/07/14 22:01:23;;;;;;;15.68;10.95;;;;;;;;;;4686635;30;20049;-84
2021/07/14 22:03:48;;;;;;;14.23;10.80;;;;;;;;;;4650497;30;20049;-83
2021/07/14 22:06:14;;;;;;;14.18;11.10;;;;;;;;;;4650500;30;20380;-83
2021/07/14 22:08:39;;;;;;;14.32;11.15;;;;;;;;;;4650743;30;20045;-83
2021/07/14 22:11:10;;;;;;;14.57;10.80;;;;;;;;;;4667272;30;20073;-83
2021/07/14 22:13:36;;;;;;;14.65;10.90;;;;;;;;;;4678346;30;20558;-84
2021/07/14 22:16:06;;;;;;;12.05;10.75;;;;;;;;;;4671215;30;20037;-83
2021/07/14 22:18:32;;;;;;;14.55;11.38;;;;;;;;;;4684709;30;20110;-84
2021/07/14 22:20:57;;;;;;;15.27;12.60;;;;;;;;;;4670399;30;20129;-84
2021/07/14 22:23:28;;;;;;;16.35;12.48;;;;;;;;;;4665279;30;20050;-83
2021/07/14 22:25:54;;;;;;;15.50;12.70;;;;;;;;;;4666978;30;20034;-83
2021/07/14 22:28:21;;;;;;;18.20;13.85;;;;;;;;;;4639328;30;20034;-83
2021/07/14 22:30:51;;;;;;;17.20;13.73;;;;;;;;;;4650197;30;20034;-84
2021/07/14 22:33:18;;;;;;;16.90;14.02;;;;;;;;;;4664601;30;20030;-83
2021/07/14 22:35:43;;;;;;;15.60;13.27;;;;;;;;;;4668990;30;20030;-83
2021/07/14 22:38:13;;;;;;;18.75;13.77;;;;;;;;;;4669732;30;20041;-83
2021/07/14 22:40:39;;;;;;;15.02;12.30;;;;;;;;;;4682333;30;20042;-83
2021/07/14 22:43:07;;;;;;;16.50;12.70;;;;;;;;;;4685392;30;20042;-83
2021/07/14 22:45:32;;;;;;;15.77;11.75;;;;;;;;;;4664327;30;20440;-84
2021/07/14 22:47:58;;;;;;;15.27;11.73;;;;;;;;;;4649358;30;20098;-83
2021/07/14 22:50:24;;;;;;;17.27;11.48;;;;;;;;;;4671382;30;20400;-83
2021/07/14 22:52:49;;;;;;;19.85;12.60;;;;;;;;;;4688271;30;20030;-83
2021/07/14 22:55:15;;;;;;;12.25;10.93;;;;;;;;;;4654893;30;20049;-83
2021/07/14 22:57:41;;;;;;;14.05;10.52;;;;;;;;;;4671156;30;20033;-84